createdAt,value
2022-12-18T00:00:08.063Z,29.77
2022-12-18T00:02:37.113Z,30.42
2022-12-18T00:05:06.491Z,28.80
2022-12-18T00:07:34.340Z,22.92
2022-12-18T00:10:01.391Z,27.40
2022-12-18T00:12:30.059Z,26.95
2022-12-18T00:14:57.103Z,31.23
2022-12-18T00:17:23.792Z,30.23
2022-12-18T00:19:53.676Z,30.92
2022-12-18T00:22:20.707Z,29.10
2022-12-18T00:24:48.591Z,27.42
2022-12-18T00:27:16.431Z,30.88
2022-12-18T00:29:44.325Z,35.15
2022-12-18T00:32:13.039Z,27.52
2022-12-18T00:34:40.944Z,27.98
2022-12-18T00:37:07.919Z,29.13
2022-12-18T00:39:35.879Z,28.27
2022-12-18T00:42:21.293Z,27.38
2022-12-18T00:44:48.324Z,27.73
2022-12-18T00:47:15.380Z,27.60
2022-12-18T00:49:42.404Z,28.73
2022-12-18T00:52:10.676Z,30.88
2022-12-18T00:54:39.385Z,31.48
2022-12-18T00:57:07.271Z,36.28
2022-12-18T00:59:34.335Z,32.35
2022-12-18T01:02:01.455Z,32.00
2022-12-18T01:04:32.919Z,32.15
2022-12-18T01:07:00.074Z,28.52
2022-12-18T01:09:32.514Z,28.17
2022-12-18T01:11:59.387Z,25.92
2022-12-18T01:14:26.467Z,25.08
2022-12-18T01:16:55.548Z,25.40
2022-12-18T01:19:23.384Z,24.65
2022-12-18T01:21:50.663Z,22.52
2022-12-18T01:24:19.519Z,21.33
2022-12-18T01:26:46.217Z,22.30
2022-12-18T01:29:14.195Z,20.63
2022-12-18T01:31:41.141Z,24.52
2022-12-18T01:34:08.127Z,23.70
2022-12-18T01:36:38.675Z,22.30
2022-12-18T01:39:08.815Z,23.58
2022-12-18T01:41:55.454Z,23.23
2022-12-18T01:44:58.256Z,24.25
2022-12-18T01:47:34.071Z,21.52
2022-12-18T01:50:22.992Z,20.60
2022-12-18T01:53:01.341Z,23.73
2022-12-18T01:55:33.138Z,21.88
2022-12-18T01:58:02.066Z,23.55
2022-12-18T02:00:32.292Z,23.08
2022-12-18T02:02:59.204Z,22.40
2022-12-18T02:05:49.237Z,21.08
2022-12-18T02:08:31.297Z,23.38
2022-12-18T02:11:06.434Z,25.02
2022-12-18T02:13:53.686Z,25.50
2022-12-18T02:16:30.430Z,26.92
2022-12-18T02:19:04.939Z,26.60
2022-12-18T02:21:31.610Z,24.83
2022-12-18T02:24:32.479Z,25.48
2022-12-18T02:27:03.879Z,22.80
2022-12-18T02:29:38.586Z,21.08
2022-12-18T02:32:12.674Z,22.55
2022-12-18T02:34:41.558Z,20.35
2022-12-18T02:37:13.875Z,21.93
2022-12-18T02:39:44.208Z,23.30
2022-12-18T02:42:13.439Z,21.00
2022-12-18T02:44:49.235Z,19.00
2022-12-18T02:47:21.058Z,21.77
2022-12-18T02:50:13.332Z,21.05
2022-12-18T02:52:55.324Z,21.50
2022-12-18T02:55:53.461Z,19.00
2022-12-18T02:58:27.403Z,22.60
2022-12-18T03:01:03.446Z,19.23
2022-12-18T03:03:47.890Z,24.63
2022-12-18T03:06:33.120Z,21.23
2022-12-18T03:09:15.714Z,19.67
2022-12-18T03:12:08.255Z,21.95
2022-12-18T03:14:37.660Z,21.58
2022-12-18T03:17:17.489Z,21.67
2022-12-18T03:22:11.891Z,17.92
2022-12-18T03:24:40.501Z,18.40
2022-12-18T03:27:12.418Z,18.55
2022-12-18T03:29:43.542Z,18.33
2022-12-18T03:32:21.862Z,18.45
2022-12-18T03:34:51.851Z,19.27
2022-12-18T03:37:18.558Z,18.83
2022-12-18T03:39:50.980Z,20.05
2022-12-18T03:42:52.512Z,16.98
2022-12-18T03:45:46.521Z,19.30
2022-12-18T03:48:44.557Z,17.40
2022-12-18T03:51:27.364Z,17.55
2022-12-18T03:54:00.519Z,16.85
2022-12-18T03:56:33.198Z,17.08
2022-12-18T03:59:02.783Z,17.92
2022-12-18T04:01:34.322Z,18.63
2022-12-18T04:04:02.978Z,15.68
2022-12-18T04:06:31.572Z,18.33
2022-12-18T04:08:59.528Z,16.38
2022-12-18T04:11:26.549Z,16.73
2022-12-18T04:13:58.283Z,15.88
2022-12-18T04:16:26.520Z,15.45
2022-12-18T04:18:53.891Z,17.55
2022-12-18T04:21:21.168Z,18.17
2022-12-18T04:23:48.047Z,16.52
2022-12-18T04:26:15.104Z,15.48
2022-12-18T04:28:43.812Z,20.05
2022-12-18T04:31:10.974Z,16.02
2022-12-18T04:33:38.315Z,14.95
2022-12-18T04:36:06.962Z,17.27
2022-12-18T04:38:35.778Z,15.27
2022-12-18T04:41:03.623Z,14.23
2022-12-18T04:43:30.692Z,14.43
2022-12-18T04:46:08.352Z,13.15
2022-12-18T04:48:36.275Z,15.52
2022-12-18T04:51:05.600Z,15.57
2022-12-18T04:53:33.014Z,15.40
2022-12-18T04:56:15.177Z,15.52
2022-12-18T04:58:43.938Z,15.75
2022-12-18T05:01:12.969Z,14.17
2022-12-18T05:03:40.219Z,15.38
2022-12-18T05:06:08.451Z,14.77
2022-12-18T05:08:35.531Z,16.27
2022-12-18T05:11:04.980Z,15.38
2022-12-18T05:13:34.337Z,14.75
2022-12-18T05:16:01.553Z,15.90
2022-12-18T05:18:28.848Z,15.60
2022-12-18T05:20:55.871Z,14.60
2022-12-18T05:23:24.329Z,15.23
2022-12-18T05:26:00.567Z,14.35
2022-12-18T05:28:30.395Z,15.07
2022-12-18T05:30:59.882Z,13.88
2022-12-18T05:33:30.981Z,14.38
2022-12-18T05:36:00.017Z,14.73
2022-12-18T05:38:28.247Z,14.82
2022-12-18T05:40:55.398Z,15.50
2022-12-18T05:43:25.387Z,15.18
2022-12-18T05:45:53.997Z,14.77
2022-12-18T05:48:21.689Z,13.90
2022-12-18T05:50:50.534Z,14.95
2022-12-18T05:53:20.637Z,15.87
2022-12-18T05:55:48.026Z,14.95
2022-12-18T05:58:15.868Z,16.77
2022-12-18T06:00:45.747Z,16.52
2022-12-18T06:03:14.651Z,15.73
2022-12-18T06:05:46.889Z,18.10
2022-12-18T06:08:14.344Z,14.95
2022-12-18T06:10:41.762Z,15.38
2022-12-18T06:13:09.107Z,16.60
2022-12-18T06:15:39.154Z,17.25
2022-12-18T06:18:06.110Z,16.75
2022-12-18T06:20:33.891Z,16.65
2022-12-18T06:23:03.423Z,16.40
2022-12-18T06:25:30.130Z,16.10
2022-12-18T06:27:57.103Z,17.17
2022-12-18T06:30:23.746Z,16.67
2022-12-18T06:32:56.843Z,16.73
2022-12-18T06:35:29.776Z,16.00
2022-12-18T06:37:56.820Z,15.85
2022-12-18T06:40:25.471Z,15.25
2022-12-18T06:42:52.510Z,14.77
2022-12-18T06:45:19.990Z,13.05
2022-12-18T06:47:47.836Z,14.88
2022-12-18T06:50:14.747Z,13.80
2022-12-18T06:52:41.558Z,13.73
2022-12-18T06:55:09.228Z,13.23
2022-12-18T06:57:36.188Z,15.10
2022-12-18T07:00:17.816Z,13.32
2022-12-18T07:02:44.807Z,14.80
2022-12-18T07:05:11.848Z,14.85
2022-12-18T07:07:39.046Z,13.35
2022-12-18T07:10:06.243Z,13.25
2022-12-18T07:12:32.995Z,11.38
2022-12-18T07:15:00.050Z,11.18
2022-12-18T07:17:27.342Z,11.52
2022-12-18T07:19:54.220Z,12.57
2022-12-18T07:22:21.274Z,11.05
2022-12-18T07:24:51.071Z,10.80
2022-12-18T07:29:44.829Z,12.15
2022-12-18T07:32:12.049Z,11.13
2022-12-18T07:34:39.703Z,11.73
2022-12-18T07:37:06.836Z,11.93
2022-12-18T07:39:33.854Z,11.90
2022-12-18T07:42:27.303Z,12.90
2022-12-18T07:44:54.912Z,10.60
2022-12-18T07:47:21.961Z,11.10
2022-12-18T07:49:49.253Z,10.88
2022-12-18T07:52:16.187Z,9.98
2022-12-18T07:54:43.235Z,11.23
2022-12-18T07:57:33.730Z,12.07
2022-12-18T07:59:57.039Z,11.93
2022-12-18T08:02:24.037Z,11.75
2022-12-18T08:04:50.959Z,11.20
2022-12-18T08:07:18.015Z,12.05
2022-12-18T08:09:45.088Z,12.00
2022-12-18T08:12:12.091Z,13.52
2022-12-18T08:14:38.729Z,13.57
2022-12-18T08:17:05.431Z,11.50
2022-12-18T08:19:32.424Z,13.15
2022-12-18T08:21:59.090Z,12.82
2022-12-18T08:24:26.623Z,12.75
2022-12-18T08:27:13.457Z,13.10
2022-12-18T08:29:40.316Z,11.45
2022-12-18T08:32:07.541Z,12.63
2022-12-18T08:34:34.439Z,12.98
2022-12-18T08:37:01.768Z,13.40
2022-12-18T08:39:28.496Z,12.50
2022-12-18T08:42:14.447Z,12.77
2022-12-18T08:44:42.139Z,13.88
2022-12-18T08:47:09.370Z,14.15
2022-12-18T08:49:36.584Z,13.10
2022-12-18T08:52:03.893Z,13.63
2022-12-18T08:54:31.133Z,14.40
2022-12-18T08:56:57.962Z,11.82
2022-12-18T08:59:24.968Z,9.60
2022-12-18T09:01:54.392Z,10.40
2022-12-18T09:04:21.593Z,9.23
2022-12-18T09:06:48.547Z,9.52
2022-12-18T09:09:15.600Z,9.68
2022-12-18T09:11:42.757Z,11.05
2022-12-18T09:14:10.986Z,9.82
2022-12-18T09:16:38.404Z,9.70
2022-12-18T09:19:06.545Z,7.85
2022-12-18T09:21:36.948Z,8.52
2022-12-18T09:24:05.010Z,10.27
2022-12-18T09:26:36.408Z,8.80
2022-12-18T09:29:04.166Z,9.13
2022-12-18T09:31:31.108Z,9.55
2022-12-18T09:33:57.959Z,8.93
2022-12-18T09:36:25.040Z,8.68
2022-12-18T09:38:52.201Z,7.93
2022-12-18T09:41:27.439Z,8.43
2022-12-18T09:44:02.357Z,9.75
2022-12-18T09:46:39.388Z,9.88
2022-12-18T09:49:13.624Z,9.70
2022-12-18T09:51:51.938Z,8.57
2022-12-18T09:54:32.724Z,7.90
2022-12-18T09:56:59.636Z,9.88
2022-12-18T09:59:40.678Z,7.93
2022-12-18T10:02:19.021Z,9.05
2022-12-18T10:05:01.335Z,8.93
2022-12-18T10:07:37.003Z,9.80
2022-12-18T10:10:15.450Z,8.35
2022-12-18T10:13:02.678Z,8.13
2022-12-18T10:15:44.796Z,8.95
2022-12-18T10:18:40.375Z,8.25
2022-12-18T10:21:16.588Z,9.18
2022-12-18T10:24:09.205Z,9.93
2022-12-18T10:26:36.075Z,9.20
2022-12-18T10:29:11.316Z,10.73
2022-12-18T10:31:38.418Z,8.65
2022-12-18T10:34:05.616Z,7.72
2022-12-18T10:36:32.464Z,20.48
2022-12-18T10:39:16.774Z,11.90
2022-12-18T10:41:43.799Z,11.57
2022-12-18T10:44:24.177Z,12.68
2022-12-18T10:46:56.993Z,9.98
2022-12-18T10:49:29.634Z,22.50
2022-12-18T10:52:17.758Z,14.75
2022-12-18T10:54:56.424Z,12.18
2022-12-18T10:57:42.515Z,22.13
2022-12-18T11:00:25.684Z,25.55
2022-12-18T11:02:53.260Z,21.73
2022-12-18T11:05:32.560Z,11.65
2022-12-18T11:08:01.357Z,12.98
2022-12-18T11:10:38.067Z,13.93
2022-12-18T11:13:19.673Z,10.13
2022-12-18T11:15:46.989Z,21.00
2022-12-18T11:18:35.556Z,12.95
2022-12-18T11:21:12.207Z,10.20
2022-12-18T11:23:54.868Z,11.82
2022-12-18T11:26:22.739Z,16.77
2022-12-18T11:29:08.155Z,10.18
2022-12-18T11:31:35.292Z,9.27
2022-12-18T11:34:30.476Z,12.00
2022-12-18T11:37:00.550Z,12.13
2022-12-18T11:39:33.688Z,12.13
2022-12-18T11:42:45.676Z,15.30
2022-12-18T11:45:13.665Z,18.25
2022-12-18T11:47:58.060Z,10.75
2022-12-18T11:50:53.380Z,12.15
2022-12-18T11:53:20.863Z,12.80
2022-12-18T11:56:16.462Z,11.23
2022-12-18T11:58:51.205Z,12.65
2022-12-18T12:01:47.177Z,11.52
2022-12-18T12:04:42.389Z,12.25
2022-12-18T12:07:41.304Z,13.07
2022-12-18T12:10:17.959Z,12.70
2022-12-18T12:13:12.926Z,13.18
2022-12-18T12:16:10.659Z,14.45
2022-12-18T12:18:37.619Z,15.80
2022-12-18T12:21:04.655Z,14.00
2022-12-18T12:23:53.763Z,13.98
2022-12-18T12:26:29.522Z,14.60
2022-12-18T12:29:03.861Z,13.55
2022-12-18T12:31:55.637Z,15.23
2022-12-18T12:34:35.740Z,16.20
2022-12-18T12:37:08.379Z,18.17
2022-12-18T12:39:41.709Z,16.77
2022-12-18T12:42:58.388Z,15.35
2022-12-18T12:45:49.248Z,15.65
2022-12-18T12:48:48.864Z,16.67
2022-12-18T12:53:46.084Z,33.15
2022-12-18T12:56:16.737Z,17.58
2022-12-18T12:59:07.509Z,20.30
2022-12-18T13:01:42.636Z,23.50
2022-12-18T13:04:28.011Z,24.83
2022-12-18T13:07:33.575Z,17.13
2022-12-18T13:10:27.071Z,21.60
2022-12-18T13:12:56.999Z,19.15
2022-12-18T13:15:30.507Z,27.90
2022-12-18T13:18:11.492Z,23.50
2022-12-18T13:21:04.463Z,28.90
2022-12-18T13:23:39.746Z,16.00
2022-12-18T13:26:34.048Z,24.05
2022-12-18T13:29:02.956Z,20.00
2022-12-18T13:31:42.578Z,17.48
2022-12-18T13:34:27.883Z,31.25
2022-12-18T13:37:20.147Z,18.85
2022-12-18T13:39:47.084Z,16.60
2022-12-18T13:42:34.437Z,16.77
2022-12-18T13:45:01.799Z,18.80
2022-12-18T13:47:33.062Z,17.90
2022-12-18T13:50:01.505Z,17.85
2022-12-18T13:52:37.907Z,19.92
2022-12-18T13:55:08.652Z,19.80
2022-12-18T13:57:38.812Z,18.02
2022-12-18T14:00:23.828Z,16.20
2022-12-18T14:02:51.321Z,15.52
2022-12-18T14:05:32.547Z,16.63
2022-12-18T14:08:15.277Z,18.75
2022-12-18T14:10:49.175Z,17.52
2022-12-18T14:13:36.611Z,17.63
2022-12-18T14:16:06.364Z,16.88
2022-12-18T14:19:15.243Z,15.63
2022-12-18T14:21:48.174Z,18.77
2022-12-18T14:24:20.855Z,16.77
2022-12-18T14:26:50.718Z,16.70
2022-12-18T14:32:08.385Z,18.50
2022-12-18T14:34:37.688Z,18.10
2022-12-18T14:37:05.269Z,15.85
2022-12-18T14:39:32.300Z,16.30
2022-12-18T14:41:59.361Z,17.75
2022-12-18T14:44:28.630Z,22.30
2022-12-18T14:47:01.700Z,19.13
2022-12-18T14:49:35.215Z,21.55
2022-12-18T14:52:05.607Z,19.75
2022-12-18T14:54:36.168Z,17.02
2022-12-18T14:57:20.491Z,39.15
2022-12-18T14:59:47.435Z,44.05
2022-12-18T15:02:24.709Z,19.15
2022-12-18T15:05:30.892Z,19.13
2022-12-18T15:08:00.655Z,31.95
2022-12-18T15:13:02.361Z,19.02
2022-12-18T15:15:38.522Z,16.05
2022-12-18T15:18:14.028Z,21.75
2022-12-18T15:20:45.167Z,16.63
2022-12-18T15:23:21.041Z,18.27
2022-12-18T15:25:49.783Z,19.48
2022-12-18T15:28:40.507Z,18.35
2022-12-18T15:31:24.439Z,15.15
2022-12-18T15:33:54.620Z,19.38
2022-12-18T15:36:26.843Z,20.83
2022-12-18T15:38:57.886Z,19.63
2022-12-18T15:41:35.994Z,17.52
2022-12-18T15:44:04.032Z,20.38
2022-12-18T15:46:31.753Z,14.13
2022-12-18T15:49:02.244Z,14.77
2022-12-18T15:51:37.676Z,15.23
2022-12-18T15:54:07.696Z,15.05
2022-12-18T15:56:53.145Z,15.45
2022-12-18T15:59:21.504Z,15.95
2022-12-18T16:01:50.524Z,11.80
2022-12-18T16:04:22.873Z,15.55
2022-12-18T16:07:14.028Z,16.55
2022-12-18T16:09:38.122Z,14.25
2022-12-18T16:12:05.703Z,13.18
2022-12-18T16:14:33.573Z,15.20
2022-12-18T16:17:06.995Z,12.57
2022-12-18T16:19:33.807Z,15.45
2022-12-18T16:22:00.488Z,16.77
2022-12-18T16:24:33.204Z,15.85
2022-12-18T16:27:01.399Z,12.98
2022-12-18T16:29:29.424Z,15.88
2022-12-18T16:32:00.452Z,12.82
2022-12-18T16:34:36.084Z,13.93
2022-12-18T16:37:06.716Z,17.38
2022-12-18T16:39:35.260Z,16.48
2022-12-18T16:42:13.472Z,13.73
2022-12-18T16:44:40.369Z,18.52
2022-12-18T16:47:08.279Z,18.83
2022-12-18T16:49:38.510Z,57.42
2022-12-18T16:52:06.324Z,45.08
2022-12-18T16:54:35.007Z,27.95
2022-12-18T16:57:01.879Z,37.63
2022-12-18T16:59:29.275Z,32.38
2022-12-18T17:01:57.360Z,31.25
2022-12-18T17:04:24.711Z,24.77
2022-12-18T17:06:53.753Z,35.55
2022-12-18T17:09:25.404Z,27.88
2022-12-18T17:11:53.924Z,26.70
2022-12-18T17:14:22.881Z,42.83
2022-12-18T17:17:19.146Z,16.83
2022-12-18T17:19:39.187Z,29.52
2022-12-18T17:22:07.963Z,33.53
2022-12-18T17:24:35.601Z,20.08
2022-12-18T17:27:03.947Z,33.03
2022-12-18T17:29:31.343Z,29.83
2022-12-18T17:31:58.727Z,25.90
2022-12-18T17:34:32.995Z,36.60
2022-12-18T17:37:00.388Z,16.30
2022-12-18T17:39:29.294Z,22.45
2022-12-18T17:41:56.784Z,18.77
2022-12-18T17:44:23.577Z,14.48
2022-12-18T17:46:50.689Z,16.95
2022-12-18T17:49:18.600Z,16.33
2022-12-18T17:51:45.535Z,15.48
2022-12-18T17:54:12.236Z,14.52
2022-12-18T17:56:39.778Z,14.65
2022-12-18T17:59:07.249Z,14.70
2022-12-18T18:01:38.449Z,13.98
2022-12-18T18:04:09.770Z,14.57
2022-12-18T18:06:38.847Z,15.10
2022-12-18T18:09:06.405Z,12.07
2022-12-18T18:11:55.079Z,15.48
2022-12-18T18:14:23.464Z,17.10
2022-12-18T18:16:52.428Z,16.38
2022-12-18T18:19:21.964Z,16.77
2022-12-18T18:21:52.424Z,14.18
2022-12-18T18:24:23.569Z,15.95
2022-12-18T18:26:50.559Z,20.80
2022-12-18T18:29:24.079Z,29.25
2022-12-18T18:31:54.696Z,25.27
2022-12-18T18:34:30.244Z,17.63
2022-12-18T18:36:57.260Z,16.65
2022-12-18T18:39:24.278Z,18.33
2022-12-18T18:41:51.812Z,35.33
2022-12-18T18:44:22.823Z,25.38
2022-12-18T18:46:57.302Z,50.05
2022-12-18T18:49:27.547Z,20.08
2022-12-18T18:51:56.709Z,32.92
2022-12-18T18:54:24.764Z,19.55
2022-12-18T18:59:38.705Z,17.77
2022-12-18T19:02:06.031Z,18.02
2022-12-18T19:04:34.168Z,44.72
2022-12-18T19:07:01.424Z,29.50
2022-12-18T19:09:28.713Z,24.25
2022-12-18T19:12:14.991Z,28.67
2022-12-18T19:14:42.631Z,26.88
2022-12-18T19:17:10.115Z,19.70
2022-12-18T19:19:37.172Z,22.58
2022-12-18T19:22:04.264Z,17.17
2022-12-18T19:24:31.416Z,21.08
2022-12-18T19:26:58.357Z,19.42
2022-12-18T19:29:25.440Z,18.15
2022-12-18T19:31:52.590Z,29.55
2022-12-18T19:34:19.471Z,16.92
2022-12-18T19:36:46.672Z,18.85
2022-12-18T19:39:19.299Z,16.63
2022-12-18T19:41:47.360Z,15.38
2022-12-18T19:44:17.960Z,15.65
2022-12-18T19:46:46.185Z,18.15
2022-12-18T19:49:17.537Z,17.55
2022-12-18T19:51:44.829Z,17.38
2022-12-18T19:54:16.734Z,16.73
2022-12-18T19:56:44.463Z,16.77
2022-12-18T19:59:11.225Z,20.85
2022-12-18T20:01:38.162Z,21.63
2022-12-18T20:04:05.565Z,20.00
2022-12-18T20:06:50.129Z,20.83
2022-12-18T20:09:17.690Z,20.00
2022-12-18T20:11:44.505Z,16.95
2022-12-18T20:14:12.849Z,19.73
2022-12-18T20:16:40.479Z,20.17
2022-12-18T20:19:08.564Z,17.50
2022-12-18T20:21:36.315Z,17.60
2022-12-18T20:24:03.640Z,21.58
2022-12-18T20:26:30.663Z,16.95
2022-12-18T20:28:57.541Z,17.42
2022-12-18T20:31:25.106Z,16.08
2022-12-18T20:33:54.420Z,28.52
2022-12-18T20:36:23.419Z,15.68
2022-12-18T20:41:25.237Z,17.83
2022-12-18T20:43:52.170Z,16.02
2022-12-18T20:46:19.315Z,20.55
2022-12-18T20:48:47.654Z,15.75
2022-12-18T20:51:17.696Z,19.70
2022-12-18T20:53:45.668Z,14.43
2022-12-18T20:56:21.560Z,18.08
2022-12-18T20:58:50.174Z,19.02
2022-12-18T21:01:20.857Z,17.50
2022-12-18T21:03:48.698Z,20.33
2022-12-18T21:06:18.120Z,18.27
2022-12-18T21:08:45.291Z,14.95
2022-12-18T21:11:34.825Z,15.98
2022-12-18T21:14:03.275Z,18.98
2022-12-18T21:16:30.151Z,17.30
2022-12-18T21:18:57.188Z,26.05
2022-12-18T21:21:27.060Z,25.25
2022-12-18T21:23:54.865Z,18.48
2022-12-18T21:26:25.091Z,20.48
2022-12-18T21:28:58.011Z,16.80
2022-12-18T21:31:27.828Z,20.77
2022-12-18T21:36:30.509Z,21.20
2022-12-18T21:38:58.496Z,16.33
2022-12-18T21:41:44.803Z,28.17
2022-12-18T21:44:14.580Z,16.92
2022-12-18T21:46:44.044Z,18.02
2022-12-18T21:49:14.422Z,21.27
2022-12-18T21:51:41.434Z,19.00
2022-12-18T21:54:08.211Z,18.48
2022-12-18T21:56:49.841Z,16.45
2022-12-18T21:59:25.657Z,14.65
2022-12-18T22:01:54.828Z,15.13
2022-12-18T22:04:23.252Z,15.93
2022-12-18T22:06:50.896Z,12.10
2022-12-18T22:09:21.219Z,16.08
2022-12-18T22:11:49.130Z,15.35
2022-12-18T22:14:19.122Z,14.15
2022-12-18T22:16:46.454Z,11.65
2022-12-18T22:19:14.866Z,12.65
2022-12-18T22:21:45.875Z,17.70
2022-12-18T22:24:25.737Z,17.90
2022-12-18T22:27:01.842Z,22.25
2022-12-18T22:29:49.393Z,14.45
2022-12-18T22:32:17.825Z,13.40
2022-12-18T22:35:04.566Z,13.18
2022-12-18T22:37:32.985Z,17.23
2022-12-18T22:39:59.917Z,18.58
2022-12-18T22:42:31.041Z,15.45
2022-12-18T22:44:58.180Z,19.02
2022-12-18T22:47:29.462Z,14.77
2022-12-18T22:49:57.360Z,14.27
2022-12-18T22:52:25.023Z,16.60
2022-12-18T22:54:53.268Z,15.82
2022-12-18T22:57:21.822Z,13.95
2022-12-18T22:59:49.427Z,12.23
2022-12-18T23:02:17.723Z,15.90
2022-12-18T23:04:45.168Z,15.75
2022-12-18T23:07:12.574Z,14.73
2022-12-18T23:09:40.100Z,14.23
2022-12-18T23:12:07.504Z,15.15
2022-12-18T23:14:34.531Z,16.08
2022-12-18T23:17:02.446Z,13.35
2022-12-18T23:19:29.449Z,15.13
2022-12-18T23:21:58.592Z,15.05
2022-12-18T23:24:31.406Z,11.95
2022-12-18T23:26:59.620Z,14.73
2022-12-18T23:29:28.279Z,12.25
2022-12-18T23:31:55.073Z,12.73
2022-12-18T23:34:22.022Z,11.93
2022-12-18T23:36:52.038Z,11.52
2022-12-18T23:39:29.032Z,11.32
2022-12-18T23:41:58.654Z,10.85
2022-12-18T23:44:25.555Z,10.40
2022-12-18T23:46:52.729Z,13.02
2022-12-18T23:49:19.492Z,11.00
2022-12-18T23:51:47.342Z,11.52
2022-12-18T23:54:14.364Z,11.95
2022-12-18T23:56:41.468Z,10.30
2022-12-18T23:59:08.517Z,6.72
